Time;durP1;ratioP1;P1;durP2;ratioP2;P2;SDS_P1;SDS_P2;PMS_P1;PMS_P2;Temp;Humidity;BMP_temperature;BMP_pressure;BME280_temperature;BME280_humidity;BME280_pressure;Samples;Min_cycle;Max_cycle;Signal;HPM_P1;HPM_P2
2021/12/18 00:00:31;;;;;;;;;;;3.10;99.90;;;;;;5086426;28;19920;-71
2021/12/18 00:02:58;;;;;;;;;;;3.10;99.90;;;;;;5086482;28;19991;-71
2021/12/18 00:05:26;;;;;;;;;;;3.20;99.90;;;;;;5086166;28;20014;-71
2021/12/18 00:07:52;;;;;;;;;;;3.10;99.90;;;;;;5086217;28;19920;-72
2021/12/18 00:10:22;;;;;;;;;;;3.10;99.90;;;;;;5086071;28;19924;-71
2021/12/18 00:12:50;;;;;;;;;;;3.10;99.90;;;;;;5086664;28;19943;-71
2021/12/18 00:15:16;;;;;;;;;;;3.00;99.90;;;;;;5085991;28;19921;-71
2021/12/18 00:17:43;;;;;;;;;;;3.00;99.90;;;;;;5086180;28;19920;-70
2021/12/18 00:20:10;;;;;;;;;;;3.10;99.90;;;;;;5086061;28;19920;-71
2021/12/18 00:22:38;;;;;;;;;;;3.00;99.90;;;;;;5086250;28;20265;-71
2021/12/18 00:25:05;;;;;;;;;;;3.10;99.90;;;;;;5085896;28;19920;-71
2021/12/18 00:27:31;;;;;;;;;;;3.10;99.90;;;;;;5086003;28;19920;-71
2021/12/18 00:29:58;;;;;;;;;;;3.10;99.90;;;;;;5085726;28;20207;-71
2021/12/18 00:32:24;;;;;;;;;;;3.00;99.90;;;;;;5085971;28;19942;-71
2021/12/18 00:34:51;;;;;;;;;;;3.00;99.90;;;;;;5085358;28;19920;-71
2021/12/18 00:37:18;;;;;;;;;;;3.00;99.90;;;;;;5085834;28;20208;-71
2021/12/18 00:39:54;;;;;;;;;;;2.90;99.90;;;;;;5085846;28;19984;-72
2021/12/18 00:42:35;;;;;;;;;;;2.90;99.90;;;;;;5085455;28;19946;-71
2021/12/18 00:45:02;;;;;;;;;;;2.90;99.90;;;;;;5085558;28;19943;-71
2021/12/18 00:47:28;;;;;;;;;;;2.90;99.90;;;;;;5085549;28;19927;-71
2021/12/18 00:49:55;;;;;;;;;;;2.80;99.90;;;;;;5085342;28;19920;-71
2021/12/18 00:52:23;;;;;;;;;;;2.90;99.90;;;;;;5085400;28;19944;-70
2021/12/18 00:54:51;;;;;;;;;;;2.90;99.90;;;;;;5085332;28;19924;-71
2021/12/18 00:57:17;;;;;;;;;;;2.90;99.90;;;;;;5084994;28;19951;-72
2021/12/18 00:59:44;;;;;;;;;;;2.90;99.90;;;;;;5085624;28;19921;-70
2021/12/18 01:02:10;;;;;;;;;;;2.90;99.90;;;;;;5085044;28;19920;-71
2021/12/18 01:04:37;;;;;;;;;;;2.90;99.90;;;;;;5085056;28;20111;-72
2021/12/18 01:07:04;;;;;;;;;;;2.90;99.90;;;;;;5085252;28;19927;-71
2021/12/18 01:09:46;;;;;;;;;;;2.90;99.90;;;;;;5084975;28;19920;-71
2021/12/18 01:12:13;;;;;;;;;;;3.00;99.90;;;;;;5085410;28;19979;-70
2021/12/18 01:15:01;;;;;;;;;;;3.00;99.90;;;;;;5084938;28;19978;-72
2021/12/18 01:23:11;;;;;;;;;;;3.00;99.90;;;;;;5023297;28;19987;-71
2021/12/18 01:25:38;;;;;;;;;;;3.00;99.90;;;;;;5056995;28;19950;-71
2021/12/18 01:28:06;;;;;;;;;;;3.00;99.90;;;;;;5084917;28;19920;-71
2021/12/18 01:30:32;;;;;;;;;;;3.00;99.90;;;;;;5084757;28;19921;-72
2021/12/18 01:32:59;;;;;;;;;;;3.00;99.90;;;;;;5084637;28;19928;-71
2021/12/18 01:35:26;;;;;;;;;;;3.00;99.90;;;;;;5084408;28;19926;-71
2021/12/18 01:37:52;;;;;;;;;;;3.00;99.90;;;;;;5084545;28;19920;-72
2021/12/18 01:40:21;;;;;;;;;;;3.00;99.90;;;;;;5084548;28;19920;-72
2021/12/18 01:45:44;;;;;;;;;;;3.00;99.90;;;;;;5084351;28;19923;-70
2021/12/18 01:51:20;;;;;;;;;;;3.00;99.90;;;;;;5084334;28;19951;-71
2021/12/18 01:53:48;;;;;;;;;;;3.00;99.90;;;;;;5084422;28;19999;-71
2021/12/18 01:56:15;;;;;;;;;;;3.00;99.90;;;;;;5083911;28;20208;-71
2021/12/18 01:58:44;;;;;;;;;;;3.00;99.90;;;;;;5084006;28;19942;-72
2021/12/18 02:01:12;;;;;;;;;;;3.00;99.90;;;;;;5083230;28;20204;-70
2021/12/18 02:03:39;;;;;;;;;;;3.00;99.90;;;;;;5084067;28;19920;-71
2021/12/18 02:06:06;;;;;;;;;;;3.00;99.90;;;;;;5084124;28;19983;-71
2021/12/18 02:08:34;;;;;;;;;;;3.00;99.90;;;;;;5083818;28;19921;-71
2021/12/18 02:11:11;;;;;;;;;;;3.00;99.90;;;;;;5084097;28;20174;-71
2021/12/18 02:13:59;;;;;;;;;;;3.00;99.90;;;;;;5083614;28;19921;-72
2021/12/18 02:21:57;;;;;;;;;;;3.00;99.90;;;;;;5083675;28;19962;-71
2021/12/18 02:24:27;;;;;;;;;;;2.90;99.90;;;;;;5083566;28;20158;-71
2021/12/18 02:26:54;;;;;;;;;;;3.00;99.90;;;;;;5083831;28;19920;-72
2021/12/18 02:29:20;;;;;;;;;;;2.90;99.90;;;;;;5083823;28;19927;-72
2021/12/18 02:31:47;;;;;;;;;;;2.90;99.90;;;;;;5083475;28;19920;-71
2021/12/18 02:34:18;;;;;;;;;;;2.90;99.90;;;;;;5083554;28;19921;-71
2021/12/18 02:36:47;;;;;;;;;;;2.90;99.90;;;;;;5083570;28;19920;-70
2021/12/18 02:39:24;;;;;;;;;;;2.90;99.90;;;;;;5083654;28;19928;-71
2021/12/18 02:42:08;;;;;;;;;;;2.90;99.90;;;;;;5083611;28;19929;-71
2021/12/18 02:44:35;;;;;;;;;;;3.00;99.90;;;;;;5083251;28;20219;-72
2021/12/18 02:47:02;;;;;;;;;;;3.00;99.90;;;;;;5082369;28;20212;-72
2021/12/18 02:49:29;;;;;;;;;;;2.90;99.90;;;;;;5076405;28;20116;-71
2021/12/18 02:51:56;;;;;;;;;;;2.90;99.90;;;;;;5065398;28;19921;-71
2021/12/18 02:54:24;;;;;;;;;;;2.90;99.90;;;;;;5061289;28;19921;-72
2021/12/18 02:56:51;;;;;;;;;;;2.90;99.90;;;;;;5087685;22;19932;-73
2021/12/18 02:59:18;;;;;;;;;;;3.00;99.90;;;;;;5103923;28;19923;-74
2021/12/18 03:01:44;;;;;;;;;;;3.00;99.90;;;;;;5103829;28;19927;-74
2021/12/18 03:04:17;;;;;;;;;;;3.00;99.90;;;;;;5102956;28;19950;-74
2021/12/18 03:06:47;;;;;;;;;;;3.00;99.90;;;;;;5103024;28;19920;-73
2021/12/18 03:09:44;;;;;;;;;;;3.00;99.90;;;;;;5083138;28;20295;-73
2021/12/18 03:21:11;;;;;;;;;;;3.00;99.90;;;;;;5087395;28;19930;-73
2021/12/18 03:26:03;;;;;;;;;;;2.90;99.90;;;;;;5065969;28;19916;-73
2021/12/18 03:28:31;;;;;;;;;;;2.90;99.90;;;;;;5087254;28;19931;-73
2021/12/18 03:30:59;;;;;;;;;;;2.90;99.90;;;;;;5087665;28;20100;-73
2021/12/18 03:33:26;;;;;;;;;;;2.80;99.90;;;;;;5087599;28;19927;-73
2021/12/18 03:35:53;;;;;;;;;;;2.80;99.90;;;;;;5086464;28;20092;-73
2021/12/18 03:38:19;;;;;;;;;;;2.80;99.90;;;;;;5084975;28;20120;-73
2021/12/18 03:40:46;;;;;;;;;;;2.90;99.90;;;;;;5067539;28;19921;-73
2021/12/18 03:43:13;;;;;;;;;;;2.90;99.90;;;;;;5067431;28;19927;-73
2021/12/18 03:45:40;;;;;;;;;;;2.90;99.90;;;;;;5066259;28;19925;-73
2021/12/18 03:48:07;;;;;;;;;;;2.90;99.90;;;;;;5067954;28;19924;-73
2021/12/18 03:50:34;;;;;;;;;;;2.90;99.90;;;;;;5087444;28;19928;-73
2021/12/18 03:53:00;;;;;;;;;;;2.90;99.90;;;;;;5087197;28;20107;-73
2021/12/18 03:55:28;;;;;;;;;;;2.90;99.90;;;;;;5083895;28;19920;-74
2021/12/18 03:57:55;;;;;;;;;;;2.90;99.90;;;;;;5086458;28;19928;-73
2021/12/18 04:00:21;;;;;;;;;;;2.80;99.90;;;;;;5086673;28;20239;-73
2021/12/18 04:02:49;;;;;;;;;;;2.90;99.90;;;;;;5086889;28;19924;-73
2021/12/18 04:05:16;;;;;;;;;;;2.90;99.90;;;;;;5075731;28;19921;-73
2021/12/18 04:07:44;;;;;;;;;;;2.90;99.90;;;;;;5080295;28;19921;-73
2021/12/18 04:10:13;;;;;;;;;;;2.90;99.90;;;;;;5086579;28;19924;-73
2021/12/18 04:12:40;;;;;;;;;;;2.90;99.90;;;;;;5086674;28;19983;-73
2021/12/18 04:15:07;;;;;;;;;;;2.90;99.90;;;;;;5085541;28;19921;-73
2021/12/18 04:17:33;;;;;;;;;;;2.90;99.90;;;;;;5071488;28;19927;-73
2021/12/18 04:20:01;;;;;;;;;;;2.90;99.90;;;;;;5082719;28;19950;-73
2021/12/18 04:22:28;;;;;;;;;;;2.90;99.90;;;;;;5086585;28;19920;-73
2021/12/18 04:24:55;;;;;;;;;;;2.90;99.90;;;;;;5084970;28;19927;-73
2021/12/18 04:27:21;;;;;;;;;;;2.90;99.90;;;;;;5086451;28;19931;-73
2021/12/18 04:29:48;;;;;;;;;;;2.90;99.90;;;;;;5073895;28;20112;-73
2021/12/18 04:32:14;;;;;;;;;;;2.90;99.90;;;;;;5066260;28;19921;-73
2021/12/18 04:34:41;;;;;;;;;;;2.90;99.90;;;;;;5065546;28;19920;-73
2021/12/18 04:37:09;;;;;;;;;;;3.00;99.90;;;;;;5066239;28;19925;-73
2021/12/18 04:39:35;;;;;;;;;;;3.00;99.90;;;;;;5066216;28;19921;-73
2021/12/18 04:42:02;;;;;;;;;;;3.00;99.90;;;;;;5065784;28;19928;-73
2021/12/18 04:44:28;;;;;;;;;;;3.00;99.90;;;;;;5065526;28;19927;-73
2021/12/18 04:46:55;;;;;;;;;;;3.00;99.90;;;;;;5081408;28;19927;-73
2021/12/18 04:49:22;;;;;;;;;;;2.90;99.90;;;;;;5086007;28;19925;-73
2021/12/18 04:51:48;;;;;;;;;;;2.90;99.90;;;;;;5085844;28;19925;-73
2021/12/18 04:54:16;;;;;;;;;;;2.90;99.90;;;;;;5085313;28;19921;-73
2021/12/18 04:56:43;;;;;;;;;;;2.90;99.90;;;;;;5085963;28;19959;-73
2021/12/18 04:59:09;;;;;;;;;;;2.80;99.90;;;;;;5085998;28;19920;-73
2021/12/18 05:01:39;;;;;;;;;;;2.90;99.90;;;;;;5085984;28;20118;-73
2021/12/18 05:04:08;;;;;;;;;;;2.90;99.90;;;;;;5085208;28;19930;-73
2021/12/18 05:06:36;;;;;;;;;;;2.90;99.90;;;;;;5085780;28;19922;-73
2021/12/18 05:09:03;;;;;;;;;;;2.90;99.90;;;;;;5085377;28;19939;-73
2021/12/18 05:11:32;;;;;;;;;;;2.90;99.90;;;;;;5085376;28;20211;-74
2021/12/18 05:13:59;;;;;;;;;;;3.00;99.90;;;;;;5084830;28;19928;-73
2021/12/18 05:16:25;;;;;;;;;;;3.00;99.90;;;;;;5085318;28;19932;-73
2021/12/18 05:18:52;;;;;;;;;;;3.00;99.90;;;;;;5085452;28;20115;-73
2021/12/18 05:21:19;;;;;;;;;;;3.00;99.90;;;;;;5085277;28;19921;-73
2021/12/18 05:23:45;;;;;;;;;;;3.00;99.90;;;;;;5075203;28;19920;-73
2021/12/18 05:26:12;;;;;;;;;;;2.90;99.90;;;;;;5082522;28;19921;-73
2021/12/18 05:28:40;;;;;;;;;;;2.90;99.90;;;;;;5084949;28;20285;-73
2021/12/18 05:31:09;;;;;;;;;;;2.90;99.90;;;;;;5085215;28;19920;-73
2021/12/18 05:33:36;;;;;;;;;;;2.90;99.90;;;;;;5084571;28;19921;-73
2021/12/18 05:36:13;;;;;;;;;;;3.00;99.90;;;;;;5068745;28;19927;-73
2021/12/18 05:38:39;;;;;;;;;;;3.00;99.90;;;;;;5070016;28;19970;-73
2021/12/18 05:41:06;;;;;;;;;;;3.00;99.90;;;;;;5085097;28;19926;-73
2021/12/18 05:43:32;;;;;;;;;;;3.00;99.90;;;;;;5084176;28;19927;-73
2021/12/18 05:46:00;;;;;;;;;;;3.00;99.90;;;;;;5084601;28;20219;-73
2021/12/18 05:48:27;;;;;;;;;;;3.00;99.90;;;;;;5064881;28;19943;-73
2021/12/18 05:50:54;;;;;;;;;;;3.10;99.90;;;;;;5082794;28;20139;-73
2021/12/18 05:53:20;;;;;;;;;;;3.10;99.90;;;;;;5084893;28;19943;-73
2021/12/18 05:55:47;;;;;;;;;;;3.10;99.90;;;;;;5084157;28;19927;-73
2021/12/18 05:58:13;;;;;;;;;;;3.00;99.90;;;;;;5084451;28;19920;-73
2021/12/18 06:00:40;;;;;;;;;;;3.00;99.90;;;;;;5084589;28;19927;-73
2021/12/18 06:03:08;;;;;;;;;;;3.00;99.90;;;;;;5084384;28;19927;-73
2021/12/18 06:05:35;;;;;;;;;;;3.00;99.90;;;;;;5081215;28;20103;-73
2021/12/18 06:08:05;;;;;;;;;;;3.00;99.90;;;;;;5084571;28;20088;-73
2021/12/18 06:10:33;;;;;;;;;;;3.00;99.90;;;;;;5078460;28;19921;-73
2021/12/18 06:13:02;;;;;;;;;;;3.00;99.90;;;;;;5064227;28;19921;-74
2021/12/18 06:15:29;;;;;;;;;;;3.00;99.90;;;;;;5060192;28;19920;-73
2021/12/18 06:17:56;;;;;;;;;;;3.00;99.90;;;;;;5064180;28;19924;-73
2021/12/18 06:20:25;;;;;;;;;;;3.00;99.90;;;;;;5075242;28;19928;-73
2021/12/18 06:22:51;;;;;;;;;;;3.00;99.90;;;;;;5083804;28;20212;-73
2021/12/18 06:25:18;;;;;;;;;;;3.00;99.90;;;;;;5083547;28;19927;-73
2021/12/18 06:27:44;;;;;;;;;;;3.00;99.90;;;;;;5083983;28;19920;-73
2021/12/18 06:30:12;;;;;;;;;;;3.10;99.90;;;;;;5084021;28;19926;-73
2021/12/18 06:32:39;;;;;;;;;;;3.10;99.90;;;;;;5084282;28;19927;-73
2021/12/18 06:35:06;;;;;;;;;;;3.00;99.90;;;;;;5083293;28;19920;-73
2021/12/18 06:37:34;;;;;;;;;;;3.00;99.90;;;;;;5084172;28;20089;-73
2021/12/18 06:40:00;;;;;;;;;;;3.00;99.90;;;;;;5084123;28;19921;-74
2021/12/18 06:42:27;;;;;;;;;;;3.00;99.90;;;;;;5084158;28;19944;-72
2021/12/18 06:44:53;;;;;;;;;;;3.00;99.90;;;;;;5083359;28;19920;-72
2021/12/18 06:47:20;;;;;;;;;;;3.00;99.90;;;;;;5083555;28;19927;-73
2021/12/18 06:49:46;;;;;;;;;;;3.00;99.90;;;;;;5083584;28;19927;-73
2021/12/18 06:52:13;;;;;;;;;;;3.00;99.90;;;;;;5083975;28;19921;-73
2021/12/18 06:54:41;;;;;;;;;;;3.00;99.90;;;;;;5083136;28;20096;-73
2021/12/18 06:57:07;;;;;;;;;;;3.00;99.90;;;;;;5076986;28;19925;-73
2021/12/18 06:59:36;;;;;;;;;;;3.10;99.90;;;;;;5062907;28;20281;-73
2021/12/18 07:02:06;;;;;;;;;;;3.10;99.90;;;;;;5074373;28;19924;-73
2021/12/18 07:04:32;;;;;;;;;;;3.00;99.90;;;;;;5082528;28;19955;-73
2021/12/18 07:06:59;;;;;;;;;;;3.10;99.90;;;;;;5071237;28;19924;-73
2021/12/18 07:09:25;;;;;;;;;;;3.00;99.90;;;;;;5083797;28;19924;-73
2021/12/18 07:11:54;;;;;;;;;;;3.00;99.90;;;;;;5081064;28;19927;-73
2021/12/18 07:14:21;;;;;;;;;;;3.10;99.90;;;;;;5082736;28;19921;-73
2021/12/18 07:16:47;;;;;;;;;;;3.10;99.90;;;;;;5082433;28;19920;-72
2021/12/18 07:19:14;;;;;;;;;;;3.10;99.90;;;;;;5063564;28;20111;-73
2021/12/18 07:21:41;;;;;;;;;;;3.10;99.90;;;;;;5063471;28;20089;-73
2021/12/18 07:24:07;;;;;;;;;;;3.10;99.90;;;;;;5062705;28;19921;-72
2021/12/18 07:26:34;;;;;;;;;;;3.10;99.90;;;;;;5063348;28;19928;-72
2021/12/18 07:29:02;;;;;;;;;;;3.10;99.90;;;;;;5063635;28;19940;-74
2021/12/18 07:31:28;;;;;;;;;;;3.00;99.90;;;;;;5063306;28;19920;-73
2021/12/18 07:33:55;;;;;;;;;;;3.00;99.90;;;;;;5062868;28;19924;-73
2021/12/18 07:36:22;;;;;;;;;;;3.10;99.90;;;;;;5063507;28;19920;-73
2021/12/18 07:38:57;;;;;;;;;;;3.00;99.90;;;;;;5060903;28;19921;-73
2021/12/18 07:41:24;;;;;;;;;;;3.10;99.90;;;;;;5063454;28;20199;-72
2021/12/18 07:43:50;;;;;;;;;;;3.10;99.90;;;;;;5062783;28;19929;-73
2021/12/18 07:46:18;;;;;;;;;;;3.10;99.90;;;;;;5063446;28;19943;-73
2021/12/18 07:48:45;;;;;;;;;;;3.10;99.90;;;;;;5063245;28;19935;-73
2021/12/18 07:51:12;;;;;;;;;;;3.10;99.90;;;;;;5063311;28;20116;-73
2021/12/18 07:53:38;;;;;;;;;;;3.10;99.90;;;;;;5062532;28;19927;-72
2021/12/18 07:56:05;;;;;;;;;;;3.10;99.90;;;;;;5063098;28;19929;-73
2021/12/18 07:58:32;;;;;;;;;;;3.10;99.90;;;;;;5064263;28;20208;-73
2021/12/18 08:00:58;;;;;;;;;;;3.10;99.90;;;;;;5066574;28;20115;-73
2021/12/18 08:03:26;;;;;;;;;;;3.10;99.90;;;;;;5067078;28;19921;-73
2021/12/18 08:05:53;;;;;;;;;;;3.10;99.90;;;;;;5066471;28;19924;-73
2021/12/18 08:08:19;;;;;;;;;;;3.10;99.90;;;;;;5084559;28;19928;-73
2021/12/18 08:10:46;;;;;;;;;;;3.10;99.90;;;;;;5085898;28;20211;-73
2021/12/18 08:13:12;;;;;;;;;;;3.10;99.90;;;;;;5085842;28;19924;-72
2021/12/18 08:15:39;;;;;;;;;;;3.10;99.90;;;;;;5084446;28;20216;-72
2021/12/18 08:18:07;;;;;;;;;;;3.20;99.90;;;;;;5085457;28;19936;-73
2021/12/18 08:20:36;;;;;;;;;;;3.20;99.90;;;;;;5081974;28;20275;-72
2021/12/18 08:23:02;;;;;;;;;;;3.20;99.90;;;;;;5086647;28;19920;-72
2021/12/18 08:25:30;;;;;;;;;;;3.20;99.90;;;;;;5085842;28;20208;-72
2021/12/18 08:27:58;;;;;;;;;;;3.20;99.90;;;;;;5085981;28;19924;-73
2021/12/18 08:30:25;;;;;;;;;;;3.20;99.90;;;;;;5080595;28;20255;-73
2021/12/18 08:32:52;;;;;;;;;;;3.20;99.90;;;;;;5086263;28;19942;-72
2021/12/18 08:35:18;;;;;;;;;;;3.20;99.90;;;;;;5085827;28;19927;-72
2021/12/18 08:37:46;;;;;;;;;;;3.30;99.90;;;;;;5083907;28;19928;-73
2021/12/18 08:40:13;;;;;;;;;;;3.30;99.90;;;;;;5085579;28;19942;-73
2021/12/18 08:42:40;;;;;;;;;;;3.40;99.90;;;;;;5085851;28;19927;-73
2021/12/18 08:45:07;;;;;;;;;;;3.40;99.90;;;;;;5080813;28;20229;-73
2021/12/18 08:47:34;;;;;;;;;;;3.40;99.90;;;;;;5085514;28;19924;-73
2021/12/18 08:50:00;;;;;;;;;;;3.40;99.90;;;;;;5085394;28;19920;-73
2021/12/18 08:52:27;;;;;;;;;;;3.40;99.90;;;;;;5085457;28;19920;-73
2021/12/18 08:54:55;;;;;;;;;;;3.50;99.90;;;;;;5084760;28;19927;-73
2021/12/18 08:57:21;;;;;;;;;;;3.50;99.90;;;;;;5083870;22;20208;-73
2021/12/18 08:59:48;;;;;;;;;;;3.40;99.90;;;;;;5046683;28;19921;-73
2021/12/18 09:02:15;;;;;;;;;;;3.50;99.90;;;;;;5048048;28;19920;-73
2021/12/18 09:04:42;;;;;;;;;;;3.50;99.90;;;;;;5064830;28;19947;-72
2021/12/18 09:07:09;;;;;;;;;;;3.50;99.90;;;;;;5064842;28;19927;-72
2021/12/18 09:09:35;;;;;;;;;;;3.50;99.90;;;;;;5046022;28;19921;-72
2021/12/18 09:12:04;;;;;;;;;;;3.50;99.90;;;;;;5045155;28;19928;-72
2021/12/18 09:14:30;;;;;;;;;;;3.40;99.90;;;;;;5044264;28;19928;-72
2021/12/18 09:16:57;;;;;;;;;;;3.40;99.90;;;;;;5045136;28;19921;-73
2021/12/18 09:19:23;;;;;;;;;;;3.40;99.90;;;;;;5044784;28;19921;-72
2021/12/18 09:21:50;;;;;;;;;;;3.40;99.90;;;;;;5045436;28;19921;-72
2021/12/18 09:24:17;;;;;;;;;;;3.50;99.90;;;;;;5044155;28;19921;-73
2021/12/18 09:26:43;;;;;;;;;;;3.50;99.90;;;;;;5044701;28;20239;-72
2021/12/18 09:29:11;;;;;;;;;;;3.50;99.90;;;;;;5044730;28;20132;-72
2021/12/18 09:31:38;;;;;;;;;;;3.50;99.90;;;;;;5044482;28;19921;-72
2021/12/18 09:34:04;;;;;;;;;;;3.50;99.90;;;;;;5044679;28;19921;-73
2021/12/18 09:36:31;;;;;;;;;;;3.50;99.90;;;;;;5044519;28;20236;-72
2021/12/18 09:38:57;;;;;;;;;;;3.60;99.90;;;;;;5044584;28;20107;-72
2021/12/18 09:41:25;;;;;;;;;;;3.60;99.90;;;;;;5044534;28;19928;-72
2021/12/18 09:43:51;;;;;;;;;;;3.60;99.90;;;;;;5043804;28;20208;-73
2021/12/18 09:46:19;;;;;;;;;;;3.60;99.90;;;;;;5062336;28;19920;-72
2021/12/18 09:48:46;;;;;;;;;;;3.60;99.90;;;;;;5064217;28;19928;-71
2021/12/18 09:51:22;;;;;;;;;;;3.60;99.90;;;;;;5064289;28;20208;-73
2021/12/18 09:53:50;;;;;;;;;;;3.70;99.90;;;;;;5063635;28;19984;-73
2021/12/18 09:56:16;;;;;;;;;;;3.70;99.90;;;;;;5063780;28;19921;-72
2021/12/18 09:58:43;;;;;;;;;;;3.70;99.90;;;;;;5061470;28;19932;-72
2021/12/18 10:01:09;;;;;;;;;;;3.70;99.90;;;;;;5064227;28;19958;-72
2021/12/18 10:03:45;;;;;;;;;;;3.70;99.90;;;;;;5063299;28;19920;-73
2021/12/18 10:06:29;;;;;;;;;;;3.60;99.90;;;;;;5064104;28;19927;-72
2021/12/18 10:08:55;;;;;;;;;;;3.60;99.90;;;;;;5047166;28;19921;-73
2021/12/18 10:11:22;;;;;;;;;;;3.60;99.90;;;;;;5044045;28;19960;-73
2021/12/18 10:13:52;;;;;;;;;;;3.60;99.90;;;;;;5043532;28;19992;-73
2021/12/18 10:16:19;;;;;;;;;;;3.60;99.90;;;;;;5043840;28;19921;-72
2021/12/18 10:18:47;;;;;;;;;;;3.60;99.90;;;;;;5043569;28;20270;-72
2021/12/18 10:21:15;;;;;;;;;;;3.70;99.90;;;;;;5045067;28;19949;-72
2021/12/18 10:23:42;;;;;;;;;;;3.70;99.90;;;;;;5043454;28;20124;-72
2021/12/18 10:26:08;;;;;;;;;;;3.70;99.90;;;;;;5063573;28;19927;-73
2021/12/18 10:28:45;;;;;;;;;;;3.70;99.90;;;;;;5063491;28;19928;-73
2021/12/18 10:31:11;;;;;;;;;;;3.70;99.90;;;;;;5061548;28;19921;-72
2021/12/18 10:33:38;;;;;;;;;;;3.70;99.90;;;;;;5043308;28;19928;-72
2021/12/18 10:36:13;;;;;;;;;;;3.80;99.90;;;;;;5043423;28;19921;-73
2021/12/18 10:38:43;;;;;;;;;;;3.80;99.90;;;;;;5043527;28;19967;-72
2021/12/18 10:41:21;;;;;;;;;;;3.90;99.90;;;;;;5043392;28;19928;-72
2021/12/18 10:43:58;;;;;;;;;;;3.90;99.90;;;;;;5052788;28;19936;-72
2021/12/18 10:46:25;;;;;;;;;;;3.90;99.90;;;;;;5044543;28;19921;-73
2021/12/18 10:48:56;;;;;;;;;;;3.90;99.90;;;;;;5043627;28;19932;-73
2021/12/18 10:51:24;;;;;;;;;;;3.90;99.90;;;;;;5043649;28;20149;-73
2021/12/18 10:53:52;;;;;;;;;;;3.90;99.90;;;;;;5054007;28;19935;-71
2021/12/18 10:56:31;;;;;;;;;;;3.90;99.90;;;;;;5062817;28;19921;-72
2021/12/18 10:58:58;;;;;;;;;;;3.90;99.90;;;;;;5060062;28;19920;-73
2021/12/18 11:01:25;;;;;;;;;;;3.90;99.90;;;;;;5063685;28;19927;-73
2021/12/18 11:03:52;;;;;;;;;;;3.90;99.90;;;;;;5062567;28;19931;-72
2021/12/18 11:06:20;;;;;;;;;;;3.90;99.90;;;;;;5063381;28;20134;-73
2021/12/18 11:08:52;;;;;;;;;;;3.90;99.90;;;;;;5062116;28;20115;-73
2021/12/18 11:14:04;;;;;;;;;;;3.90;99.90;;;;;;5062528;28;19923;-72
2021/12/18 11:16:35;;;;;;;;;;;3.90;99.90;;;;;;5063325;28;19921;-73
2021/12/18 11:19:02;;;;;;;;;;;4.00;99.90;;;;;;5063422;28;19987;-73
2021/12/18 11:21:29;;;;;;;;;;;4.00;99.90;;;;;;5063142;28;19927;-75
2021/12/18 11:24:01;;;;;;;;;;;4.00;99.90;;;;;;5061000;28;19939;-72
2021/12/18 11:26:31;;;;;;;;;;;4.00;99.90;;;;;;5062969;28;19963;-72
2021/12/18 11:28:59;;;;;;;;;;;4.00;99.90;;;;;;5058010;28;19920;-72
2021/12/18 11:31:27;;;;;;;;;;;4.00;99.90;;;;;;5062083;28;20207;-72
2021/12/18 11:33:54;;;;;;;;;;;4.00;99.90;;;;;;5043922;28;19936;-71
2021/12/18 11:36:21;;;;;;;;;;;4.00;99.90;;;;;;5045910;28;19921;-72
2021/12/18 11:38:48;;;;;;;;;;;4.00;99.90;;;;;;5049987;28;19928;-70
2021/12/18 11:41:17;;;;;;;;;;;4.00;99.90;;;;;;5060235;28;19921;-72
2021/12/18 11:43:46;;;;;;;;;;;4.00;99.90;;;;;;5053185;28;20295;-72
2021/12/18 11:46:30;;;;;;;;;;;4.00;99.90;;;;;;5055200;28;19920;-72
2021/12/18 11:48:57;;;;;;;;;;;4.00;99.90;;;;;;5057493;28;19929;-72
2021/12/18 11:51:24;;;;;;;;;;;4.00;99.90;;;;;;5046933;28;19925;-72
2021/12/18 11:53:51;;;;;;;;;;;4.00;99.90;;;;;;5046233;28;19925;-71
2021/12/18 11:56:19;;;;;;;;;;;4.00;99.90;;;;;;5052023;28;19929;-71
2021/12/18 11:58:49;;;;;;;;;;;4.00;99.90;;;;;;5057900;28;19929;-71
2021/12/18 12:01:17;;;;;;;;;;;4.00;99.90;;;;;;5052786;28;19932;-71
2021/12/18 12:03:45;;;;;;;;;;;4.00;99.90;;;;;;5045795;28;19921;-72
2021/12/18 12:06:24;;;;;;;;;;;4.10;99.90;;;;;;5047451;28;19925;-71
2021/12/18 12:08:52;;;;;;;;;;;4.10;99.90;;;;;;5056033;28;19944;-70
2021/12/18 12:11:23;;;;;;;;;;;4.10;99.90;;;;;;5056214;28;19927;-71
2021/12/18 12:14:08;;;;;;;;;;;4.10;99.90;;;;;;5046045;28;19929;-71
2021/12/18 12:16:56;;;;;;;;;;;4.10;99.90;;;;;;5063948;28;20323;-70
2021/12/18 12:19:24;;;;;;;;;;;4.10;99.90;;;;;;5026889;28;19921;-71
2021/12/18 12:21:52;;;;;;;;;;;4.10;99.90;;;;;;5066614;28;19992;-71
2021/12/18 12:24:20;;;;;;;;;;;4.00;99.90;;;;;;5065173;28;19921;-71
2021/12/18 12:26:49;;;;;;;;;;;4.00;99.90;;;;;;5052779;28;19921;-71
2021/12/18 12:29:16;;;;;;;;;;;4.00;99.90;;;;;;5055129;28;19931;-71
2021/12/18 12:31:54;;;;;;;;;;;3.90;99.90;;;;;;5066216;28;19920;-70
2021/12/18 12:34:21;;;;;;;;;;;3.90;99.90;;;;;;5065537;28;20230;-70
2021/12/18 12:36:48;;;;;;;;;;;3.90;99.90;;;;;;5066165;28;20093;-72
2021/12/18 12:39:15;;;;;;;;;;;3.90;99.90;;;;;;5057381;28;19925;-72
2021/12/18 12:41:47;;;;;;;;;;;3.90;99.90;;;;;;5059445;28;19924;-71
2021/12/18 12:44:31;;;;;;;;;;;3.90;99.90;;;;;;5064845;28;19920;-71
2021/12/18 12:49:53;;;;;;;;;;;3.90;99.90;;;;;;5139067;27;19970;-74
2021/12/18 12:52:21;;;;;;;;;;;3.90;99.90;;;;;;5121474;28;19924;-70
2021/12/18 12:54:49;;;;;;;;;;;4.00;99.90;;;;;;5121294;28;19920;-70
2021/12/18 12:57:34;;;;;;;;;;;4.00;99.90;;;;;;5121669;28;19920;-71
2021/12/18 13:00:19;;;;;;;;;;;4.00;99.90;;;;;;5119077;28;19920;-72
2021/12/18 13:02:53;;;;;;;;;;;4.00;99.90;;;;;;5119846;28;19920;-74
2021/12/18 13:05:21;;;;;;;;;;;4.00;99.90;;;;;;5120961;28;19985;-72
2021/12/18 13:07:49;;;;;;;;;;;4.00;99.90;;;;;;5118355;28;19931;-71
2021/12/18 13:10:18;;;;;;;;;;;4.00;99.90;;;;;;5120882;28;19962;-71
2021/12/18 13:12:51;;;;;;;;;;;4.00;99.90;;;;;;5121035;28;19965;-72
2021/12/18 13:15:18;;;;;;;;;;;4.00;99.90;;;;;;5120329;28;20277;-72
2021/12/18 13:17:45;;;;;;;;;;;4.00;99.90;;;;;;5121102;28;19979;-72
2021/12/18 13:20:12;;;;;;;;;;;4.00;99.90;;;;;;5120705;28;19920;-72
2021/12/18 13:22:40;;;;;;;;;;;4.10;99.90;;;;;;5121038;28;19920;-73
2021/12/18 13:25:07;;;;;;;;;;;4.10;99.90;;;;;;5118597;28;20111;-71
2021/12/18 13:27:35;;;;;;;;;;;4.00;99.90;;;;;;5120976;28;20199;-71
2021/12/18 13:30:12;;;;;;;;;;;4.00;99.90;;;;;;5120118;28;19930;-72
2021/12/18 13:32:50;;;;;;;;;;;4.00;99.90;;;;;;5100369;28;19995;-71
2021/12/18 13:35:17;;;;;;;;;;;4.00;99.90;;;;;;5105970;28;19919;-71
2021/12/18 13:37:53;;;;;;;;;;;4.00;99.90;;;;;;5119832;28;19920;-72
2021/12/18 13:40:20;;;;;;;;;;;4.00;99.90;;;;;;5120430;28;20157;-71
2021/12/18 13:42:47;;;;;;;;;;;4.00;99.90;;;;;;5120684;28;19926;-70
2021/12/18 13:45:13;;;;;;;;;;;4.00;99.90;;;;;;5119875;28;19926;-71
2021/12/18 13:47:41;;;;;;;;;;;4.00;99.90;;;;;;5120448;28;19930;-72
2021/12/18 13:50:10;;;;;;;;;;;4.00;99.90;;;;;;5120464;28;19979;-72
2021/12/18 13:52:38;;;;;;;;;;;4.00;99.90;;;;;;5121212;28;19977;-72
2021/12/18 13:55:20;;;;;;;;;;;4.00;99.90;;;;;;5119550;28;19928;-72
2021/12/18 13:57:58;;;;;;;;;;;4.00;99.90;;;;;;5110645;28;19920;-72
2021/12/18 14:00:24;;;;;;;;;;;4.00;99.90;;;;;;5111572;28;20194;-70
2021/12/18 14:02:51;;;;;;;;;;;4.00;99.90;;;;;;5106805;28;19920;-70
2021/12/18 14:05:18;;;;;;;;;;;4.00;99.90;;;;;;5105911;28;19920;-71
2021/12/18 14:07:45;;;;;;;;;;;4.00;99.90;;;;;;5101384;28;19935;-71
2021/12/18 14:10:12;;;;;;;;;;;4.00;99.90;;;;;;5106146;28;19928;-70
2021/12/18 14:12:38;;;;;;;;;;;4.00;99.90;;;;;;5107046;28;19920;-70
2021/12/18 14:15:10;;;;;;;;;;;4.00;99.90;;;;;;5103899;28;19919;-70
2021/12/18 14:17:39;;;;;;;;;;;4.00;99.90;;;;;;5106991;28;19928;-70
2021/12/18 14:20:08;;;;;;;;;;;4.00;99.90;;;;;;5103400;28;19927;-71
2021/12/18 14:22:35;;;;;;;;;;;4.00;99.90;;;;;;5106866;28;19920;-71
2021/12/18 14:25:03;;;;;;;;;;;4.00;99.90;;;;;;5105901;28;19923;-70
2021/12/18 14:27:37;;;;;;;;;;;4.00;99.90;;;;;;5106615;28;19926;-69
2021/12/18 14:30:04;;;;;;;;;;;4.00;99.90;;;;;;5099741;28;19928;-70
2021/12/18 14:32:31;;;;;;;;;;;4.00;99.90;;;;;;5106657;28;19926;-70
2021/12/18 14:35:04;;;;;;;;;;;3.90;99.90;;;;;;5105395;28;20231;-70
2021/12/18 14:37:30;;;;;;;;;;;3.90;99.90;;;;;;5106401;28;20108;-70
2021/12/18 14:39:57;;;;;;;;;;;3.90;99.90;;;;;;5106409;28;19920;-70
2021/12/18 14:42:30;;;;;;;;;;;3.90;99.90;;;;;;5106021;28;19943;-68
2021/12/18 14:44:58;;;;;;;;;;;3.90;99.90;;;;;;5101362;28;19927;-68
2021/12/18 14:47:26;;;;;;;;;;;3.90;99.90;;;;;;5105984;28;19920;-71
2021/12/18 14:49:54;;;;;;;;;;;3.90;99.90;;;;;;5105259;28;19920;-67
2021/12/18 14:52:22;;;;;;;;;;;3.90;99.90;;;;;;5106009;28;20234;-68
2021/12/18 14:54:49;;;;;;;;;;;3.90;99.90;;;;;;5105383;28;19920;-68
2021/12/18 14:57:16;;;;;;;;;;;3.80;99.90;;;;;;5105779;28;20150;-69
2021/12/18 14:59:43;;;;;;;;;;;3.90;99.90;;;;;;5105940;28;19920;-69
2021/12/18 15:02:09;;;;;;;;;;;3.90;99.90;;;;;;5105916;28;19963;-69
2021/12/18 15:04:36;;;;;;;;;;;3.90;99.90;;;;;;5104940;28;19920;-69
2021/12/18 15:07:03;;;;;;;;;;;3.90;99.90;;;;;;5094686;22;19920;-70
2021/12/18 15:09:31;;;;;;;;;;;3.80;99.90;;;;;;5077692;28;19966;-70
2021/12/18 15:11:59;;;;;;;;;;;3.80;99.90;;;;;;5084203;28;19920;-70